createdAt,value
2019-02-18T00:00:55.332Z,67.78
2019-02-18T00:03:26.186Z,67.68
2019-02-18T00:05:57.017Z,67.93
2019-02-18T00:08:29.499Z,67.83
2019-02-18T00:10:59.923Z,68.20
2019-02-18T00:13:30.761Z,68.03
2019-02-18T00:16:01.472Z,68.03
2019-02-18T00:18:31.877Z,68.17
2019-02-18T00:21:02.664Z,68.22
2019-02-18T00:23:33.125Z,68.13
2019-02-18T00:26:03.996Z,68.12
2019-02-18T00:28:36.846Z,68.13
2019-02-18T00:31:06.929Z,68.04
2019-02-18T00:33:37.656Z,68.02
2019-02-18T00:36:08.519Z,68.10
2019-02-18T00:38:39.223Z,68.04
2019-02-18T00:41:10.064Z,68.03
2019-02-18T00:43:40.985Z,68.21
2019-02-18T00:46:11.735Z,68.43
2019-02-18T00:48:42.717Z,68.40
2019-02-18T00:51:13.227Z,68.52
2019-02-18T00:53:44.049Z,68.22
2019-02-18T00:56:14.883Z,68.48
2019-02-18T00:58:45.714Z,68.27
2019-02-18T01:01:16.535Z,68.40
2019-02-18T01:03:47.056Z,68.27
2019-02-18T01:06:17.734Z,68.47
2019-02-18T01:08:48.669Z,68.56
2019-02-18T01:11:19.486Z,68.52
2019-02-18T01:13:50.320Z,68.79
2019-02-18T01:16:20.811Z,68.52
2019-02-18T01:18:51.588Z,68.46
2019-02-18T01:21:22.322Z,68.67
2019-02-18T01:23:53.218Z,68.63
2019-02-18T01:26:23.988Z,68.55
2019-02-18T01:28:54.735Z,68.47
2019-02-18T01:31:25.456Z,68.73
2019-02-18T01:33:56.299Z,68.85
2019-02-18T01:36:27.139Z,68.75
2019-02-18T01:38:58.089Z,68.69
2019-02-18T01:41:28.906Z,69.00
2019-02-18T01:43:59.602Z,69.03
2019-02-18T01:46:30.397Z,68.74
2019-02-18T01:49:00.900Z,68.97
2019-02-18T01:51:31.698Z,69.05
2019-02-18T01:54:02.575Z,68.78
2019-02-18T01:56:32.951Z,68.73
2019-02-18T01:59:03.748Z,68.94
2019-02-18T02:01:34.577Z,69.15
2019-02-18T02:04:05.429Z,68.99
2019-02-18T02:06:36.257Z,68.94
2019-02-18T02:09:09.533Z,68.92
2019-02-18T02:11:40.287Z,68.74
2019-02-18T02:14:11.022Z,68.79
2019-02-18T02:16:41.469Z,69.03
2019-02-18T02:19:12.311Z,68.84
2019-02-18T02:21:43.111Z,69.02
2019-02-18T02:24:13.970Z,68.94
2019-02-18T02:26:44.785Z,69.30
2019-02-18T02:29:15.641Z,69.02
2019-02-18T02:31:46.458Z,69.19
2019-02-18T02:34:17.409Z,69.31
2019-02-18T02:36:47.902Z,69.23
2019-02-18T02:39:18.463Z,69.09
2019-02-18T02:41:48.848Z,69.14
2019-02-18T02:44:19.535Z,69.34
2019-02-18T02:46:50.268Z,69.28
2019-02-18T02:49:21.095Z,69.49
2019-02-18T02:51:51.945Z,69.62
2019-02-18T02:54:22.963Z,69.56
2019-02-18T02:56:53.836Z,69.69
2019-02-18T02:59:24.667Z,69.51
2019-02-18T03:01:55.511Z,69.62
2019-02-18T03:04:26.314Z,69.73
2019-02-18T03:06:57.137Z,70.09
2019-02-18T03:09:27.978Z,69.90
2019-02-18T03:11:58.822Z,70.00
2019-02-18T03:14:29.208Z,70.01
2019-02-18T03:17:00.070Z,70.06
2019-02-18T03:19:30.842Z,70.10
2019-02-18T03:22:01.686Z,70.13
2019-02-18T03:24:32.497Z,70.15
2019-02-18T03:27:03.228Z,70.06
2019-02-18T03:29:45.428Z,69.96
2019-02-18T03:32:16.327Z,70.25
2019-02-18T03:34:46.723Z,70.08
2019-02-18T03:37:17.651Z,70.21
2019-02-18T03:39:48.379Z,70.34
2019-02-18T03:42:19.118Z,70.47
2019-02-18T03:44:49.831Z,70.57
2019-02-18T03:47:20.676Z,70.69
2019-02-18T03:49:51.500Z,70.56
2019-02-18T03:52:22.212Z,70.54
2019-02-18T03:54:52.976Z,70.54
2019-02-18T03:57:23.712Z,70.53
2019-02-18T03:59:54.529Z,70.56
2019-02-18T04:02:25.377Z,70.63
2019-02-18T04:04:56.220Z,70.50
2019-02-18T04:07:27.066Z,70.52
2019-02-18T04:09:57.589Z,70.65
2019-02-18T04:12:28.055Z,70.69
2019-02-18T04:14:58.856Z,70.61
2019-02-18T04:17:29.856Z,70.71
2019-02-18T04:20:00.727Z,70.78
2019-02-18T04:22:31.568Z,70.88
2019-02-18T04:25:02.357Z,70.88
2019-02-18T04:27:33.658Z,71.04
2019-02-18T04:30:09.814Z,71.11
2019-02-18T04:32:40.667Z,70.96
2019-02-18T04:35:11.584Z,71.08
2019-02-18T04:37:42.101Z,71.18
2019-02-18T04:40:12.946Z,71.11
2019-02-18T04:42:43.689Z,71.10
2019-02-18T04:45:14.170Z,71.20
2019-02-18T04:47:45.060Z,71.09
2019-02-18T04:50:15.447Z,71.04
2019-02-18T04:52:46.145Z,71.25
2019-02-18T04:55:16.841Z,71.32
2019-02-18T04:57:47.575Z,71.34
2019-02-18T05:00:18.332Z,71.33
2019-02-18T05:02:49.305Z,71.20
2019-02-18T05:05:20.003Z,71.28
2019-02-18T05:07:50.823Z,71.20
2019-02-18T05:10:21.570Z,71.26
2019-02-18T05:12:52.412Z,71.20
2019-02-18T05:15:23.247Z,71.12
2019-02-18T05:17:53.992Z,71.07
2019-02-18T05:20:24.798Z,71.14
2019-02-18T05:22:55.557Z,71.09
2019-02-18T05:25:26.273Z,71.22
2019-02-18T05:27:57.103Z,71.14
2019-02-18T05:30:29.460Z,71.21
2019-02-18T05:33:00.025Z,71.20
2019-02-18T05:35:30.883Z,71.30
2019-02-18T05:38:01.704Z,71.60
2019-02-18T05:40:32.508Z,71.66
2019-02-18T05:43:03.256Z,71.44
2019-02-18T05:45:34.032Z,71.57
2019-02-18T05:48:04.523Z,71.77
2019-02-18T05:50:34.912Z,71.66
2019-02-18T05:53:05.661Z,71.61
2019-02-18T05:55:36.059Z,71.55
2019-02-18T05:58:06.846Z,71.60
2019-02-18T06:00:37.575Z,71.75
2019-02-18T06:03:08.411Z,71.84
2019-02-18T06:05:39.262Z,72.21
2019-02-18T06:08:10.092Z,72.24
2019-02-18T06:10:40.824Z,72.19
2019-02-18T06:13:11.654Z,72.08
2019-02-18T06:15:42.410Z,72.18
2019-02-18T06:18:13.256Z,72.38
2019-02-18T06:20:44.094Z,72.25
2019-02-18T06:23:15.544Z,72.33
2019-02-18T06:25:53.327Z,72.43
2019-02-18T06:28:25.486Z,72.26
2019-02-18T06:30:56.243Z,72.39
2019-02-18T06:33:28.367Z,72.34
2019-02-18T06:35:59.437Z,72.08
2019-02-18T06:38:30.327Z,72.19
2019-02-18T06:41:01.228Z,72.17
2019-02-18T06:43:32.039Z,72.04
2019-02-18T06:46:04.527Z,71.90
2019-02-18T06:48:38.138Z,71.89
2019-02-18T06:51:08.668Z,71.87
2019-02-18T06:53:39.522Z,72.20
2019-02-18T06:56:10.321Z,72.10
2019-02-18T06:58:42.812Z,71.85
2019-02-18T07:01:21.376Z,71.93
2019-02-18T07:03:56.979Z,71.70
2019-02-18T07:06:32.420Z,71.70
2019-02-18T07:09:05.001Z,71.79
2019-02-18T07:11:43.631Z,71.67
2019-02-18T07:14:14.456Z,71.57
2019-02-18T07:16:45.289Z,71.42
2019-02-18T07:19:16.866Z,71.37
2019-02-18T07:21:47.771Z,71.54
2019-02-18T07:24:18.636Z,71.44
2019-02-18T07:26:49.535Z,71.16
2019-02-18T07:29:19.918Z,70.99
2019-02-18T07:31:50.735Z,71.25
2019-02-18T07:34:21.759Z,71.17
2019-02-18T07:36:52.711Z,70.75
2019-02-18T07:39:23.545Z,70.28
2019-02-18T07:41:54.388Z,70.27
2019-02-18T07:44:25.712Z,70.06
2019-02-18T07:46:56.652Z,70.05
2019-02-18T07:49:27.489Z,69.74
2019-02-18T07:51:58.336Z,69.54
2019-02-18T07:54:29.326Z,69.62
2019-02-18T07:57:01.740Z,69.84
2019-02-18T07:59:32.585Z,69.06
2019-02-18T08:02:03.523Z,68.59
2019-02-18T08:04:33.919Z,68.76
2019-02-18T08:07:04.687Z,68.79
2019-02-18T08:09:35.076Z,68.59
2019-02-18T08:12:05.848Z,68.67
2019-02-18T08:14:36.682Z,68.57
2019-02-18T08:17:07.535Z,68.74
2019-02-18T08:19:38.022Z,68.51
2019-02-18T08:22:08.986Z,68.40
2019-02-18T08:24:39.813Z,68.22
2019-02-18T08:27:10.664Z,68.18
2019-02-18T08:29:41.218Z,67.71
2019-02-18T08:32:12.131Z,67.34
2019-02-18T08:34:42.899Z,66.98
2019-02-18T08:37:13.702Z,66.72
2019-02-18T08:39:44.414Z,66.68
2019-02-18T08:42:15.264Z,65.59
2019-02-18T08:44:46.098Z,65.27
2019-02-18T08:47:16.941Z,65.23
2019-02-18T08:49:47.746Z,64.83
2019-02-18T08:52:18.151Z,64.22
2019-02-18T08:54:56.183Z,64.04
2019-02-18T08:57:21.898Z,64.14
2019-02-18T08:59:53.278Z,63.74
2019-02-18T09:02:25.924Z,63.59
2019-02-18T09:04:56.815Z,63.80
2019-02-18T09:07:27.622Z,63.40
2019-02-18T09:09:58.458Z,62.63
2019-02-18T09:12:29.294Z,61.94
2019-02-18T09:15:02.689Z,61.48
2019-02-18T09:17:33.182Z,61.62
2019-02-18T09:20:04.100Z,61.94
2019-02-18T09:22:51.575Z,61.83
2019-02-18T09:25:24.097Z,61.10
2019-02-18T09:27:54.929Z,60.84
2019-02-18T09:30:27.474Z,60.58
2019-02-18T09:32:58.348Z,60.51
2019-02-18T09:35:29.143Z,60.26
2019-02-18T09:37:59.906Z,59.88
2019-02-18T09:40:30.728Z,60.50
2019-02-18T09:43:01.835Z,61.55
2019-02-18T09:45:32.983Z,61.02
2019-02-18T09:48:03.751Z,59.30
2019-02-18T09:50:35.679Z,60.11
2019-02-18T09:53:06.342Z,60.29
2019-02-18T09:55:36.807Z,59.65
2019-02-18T09:58:07.553Z,59.60
2019-02-18T10:00:38.515Z,60.01
2019-02-18T10:03:11.209Z,59.24
2019-02-18T10:05:41.792Z,58.50
2019-02-18T10:08:12.701Z,58.23
2019-02-18T10:10:43.570Z,56.80
2019-02-18T10:13:15.865Z,57.37
2019-02-18T10:15:46.733Z,56.83
2019-02-18T10:18:17.572Z,56.82
2019-02-18T10:20:48.005Z,56.71
2019-02-18T10:23:18.939Z,56.46
2019-02-18T10:25:49.780Z,56.71
2019-02-18T10:28:20.633Z,56.23
2019-02-18T10:30:53.112Z,55.79
2019-02-18T10:33:23.949Z,56.21
2019-02-18T10:35:54.886Z,56.61
2019-02-18T10:38:26.632Z,55.10
2019-02-18T10:41:06.378Z,54.85
2019-02-18T10:43:32.350Z,54.20
2019-02-18T10:46:02.579Z,54.72
2019-02-18T10:48:33.585Z,53.78
2019-02-18T10:51:04.420Z,54.45
2019-02-18T10:53:35.009Z,52.99
2019-02-18T10:56:07.459Z,53.22
2019-02-18T10:58:37.932Z,53.79
2019-02-18T11:01:11.095Z,53.42
2019-02-18T11:03:41.963Z,52.93
2019-02-18T11:06:12.777Z,52.47
2019-02-18T11:08:43.535Z,52.83
2019-02-18T11:11:17.245Z,54.46
2019-02-18T11:13:47.426Z,54.05
2019-02-18T11:16:18.283Z,53.89
2019-02-18T11:18:49.248Z,53.61
2019-02-18T11:21:21.324Z,53.23
2019-02-18T11:23:52.238Z,51.48
2019-02-18T11:26:23.074Z,51.03
2019-02-18T11:28:54.653Z,53.05
2019-02-18T11:31:27.015Z,53.12
2019-02-18T11:33:57.873Z,51.23
2019-02-18T11:36:28.776Z,52.32
2019-02-18T11:38:59.852Z,52.41
2019-02-18T11:41:30.572Z,52.72
2019-02-18T11:44:01.949Z,50.48
2019-02-18T11:46:32.754Z,50.25
2019-02-18T11:49:03.180Z,51.43
2019-02-18T11:51:34.014Z,51.94
2019-02-18T11:54:04.854Z,51.58
2019-02-18T11:56:36.527Z,51.65
2019-02-18T11:59:07.305Z,51.22
2019-02-18T12:01:38.097Z,50.45
2019-02-18T12:04:08.623Z,50.96
2019-02-18T12:06:39.421Z,48.20
2019-02-18T12:09:10.403Z,48.14
2019-02-18T12:11:41.785Z,48.56
2019-02-18T12:14:12.671Z,48.91
2019-02-18T12:16:43.641Z,49.93
2019-02-18T12:19:14.503Z,50.97
2019-02-18T12:21:45.369Z,50.48
2019-02-18T12:24:16.503Z,50.81
2019-02-18T12:26:47.377Z,50.88
2019-02-18T12:29:26.321Z,50.38
2019-02-18T12:31:50.780Z,49.66
2019-02-18T12:34:21.694Z,49.73
2019-02-18T12:36:53.103Z,49.18
2019-02-18T12:39:23.980Z,49.69
2019-02-18T12:41:54.849Z,50.22
2019-02-18T12:44:27.500Z,50.36
2019-02-18T12:46:58.507Z,48.76
2019-02-18T12:49:30.032Z,48.72
2019-02-18T12:52:00.969Z,49.86
2019-02-18T12:54:31.873Z,51.29
2019-02-18T12:57:03.476Z,50.93
2019-02-18T12:59:34.512Z,50.42
2019-02-18T13:02:05.404Z,50.17
2019-02-18T13:04:38.600Z,50.43
2019-02-18T13:07:09.537Z,50.09
2019-02-18T13:09:40.478Z,48.08
2019-02-18T13:12:11.710Z,48.41
2019-02-18T13:14:42.562Z,48.69
2019-02-18T13:17:13.513Z,48.51
2019-02-18T13:19:44.636Z,48.45
2019-02-18T13:22:15.503Z,48.83
2019-02-18T13:24:47.983Z,49.73
2019-02-18T13:27:18.931Z,48.86
2019-02-18T13:29:49.890Z,48.60
2019-02-18T13:32:20.422Z,49.58
2019-02-18T13:34:51.429Z,49.03
2019-02-18T13:37:21.963Z,48.60
2019-02-18T13:39:53.004Z,49.01
2019-02-18T13:42:23.923Z,49.23
2019-02-18T13:44:54.845Z,49.29
2019-02-18T13:47:25.993Z,49.04
2019-02-18T13:49:59.858Z,49.65
2019-02-18T13:52:30.752Z,49.52
2019-02-18T13:55:02.216Z,48.50
2019-02-18T13:57:32.929Z,49.18
2019-02-18T14:00:07.059Z,49.02
2019-02-18T14:02:37.600Z,48.90
2019-02-18T14:05:08.922Z,49.39
2019-02-18T14:07:39.970Z,50.02
2019-02-18T14:10:10.808Z,49.80
2019-02-18T14:12:42.068Z,49.02
2019-02-18T14:15:14.704Z,48.57
2019-02-18T14:17:45.788Z,48.77
2019-02-18T14:20:19.075Z,48.96
2019-02-18T14:22:51.540Z,48.50
2019-02-18T14:25:22.512Z,49.04
2019-02-18T14:27:54.560Z,49.44
2019-02-18T14:30:25.722Z,50.58
2019-02-18T14:32:56.643Z,49.88
2019-02-18T14:35:27.950Z,48.72
2019-02-18T14:37:58.552Z,47.55
2019-02-18T14:40:29.462Z,47.04
2019-02-18T14:43:00.404Z,46.80
2019-02-18T14:45:31.108Z,45.53
2019-02-18T14:48:01.667Z,45.99
2019-02-18T14:50:33.123Z,46.08
2019-02-18T14:53:03.928Z,46.33
2019-02-18T14:55:34.650Z,46.37
2019-02-18T14:58:06.090Z,46.91
2019-02-18T15:00:37.437Z,47.87
2019-02-18T15:03:09.084Z,46.88
2019-02-18T15:05:40.054Z,48.54
2019-02-18T15:08:11.396Z,49.37
2019-02-18T15:10:42.455Z,49.75
2019-02-18T15:13:13.785Z,49.51
2019-02-18T15:15:45.420Z,50.49
2019-02-18T15:18:17.229Z,50.46
2019-02-18T15:20:47.847Z,50.86
2019-02-18T15:23:18.398Z,50.98
2019-02-18T15:25:49.960Z,51.57
2019-02-18T15:28:20.958Z,51.69
2019-02-18T15:30:51.837Z,52.16
2019-02-18T15:33:22.833Z,52.03
2019-02-18T15:35:53.358Z,51.76
2019-02-18T15:38:24.227Z,51.77
2019-02-18T15:40:55.176Z,51.67
2019-02-18T15:43:26.771Z,52.16
2019-02-18T15:45:58.421Z,51.93
2019-02-18T15:48:29.215Z,52.21
2019-02-18T15:51:00.187Z,51.84
2019-02-18T15:53:31.011Z,52.26
2019-02-18T15:56:01.929Z,52.43
2019-02-18T15:58:34.566Z,52.42
2019-02-18T16:01:06.223Z,52.39
2019-02-18T16:03:37.111Z,52.14
2019-02-18T16:06:08.041Z,52.49
2019-02-18T16:08:38.964Z,52.64
2019-02-18T16:11:09.833Z,53.29
2019-02-18T16:13:40.758Z,53.41
2019-02-18T16:16:11.742Z,53.79
2019-02-18T16:18:42.609Z,54.02
2019-02-18T16:21:13.888Z,54.14
2019-02-18T16:23:44.820Z,54.04
2019-02-18T16:26:17.329Z,54.10
2019-02-18T16:28:48.264Z,54.31
2019-02-18T16:31:18.882Z,54.51
2019-02-18T16:33:49.733Z,54.92
2019-02-18T16:36:20.762Z,55.00
2019-02-18T16:38:51.749Z,55.26
2019-02-18T16:41:23.830Z,55.23
2019-02-18T16:43:54.774Z,55.38
2019-02-18T16:46:25.702Z,55.50
2019-02-18T16:48:58.150Z,56.02
2019-02-18T16:51:29.162Z,55.98
2019-02-18T16:54:00.743Z,55.69
2019-02-18T16:56:31.664Z,55.70
2019-02-18T16:59:03.200Z,55.61
2019-02-18T17:01:34.236Z,55.82
2019-02-18T17:04:05.312Z,56.11
2019-02-18T17:06:36.335Z,56.38
2019-02-18T17:09:11.686Z,56.72
2019-02-18T17:11:43.045Z,56.51
2019-02-18T17:14:16.672Z,56.71
2019-02-18T17:16:47.239Z,56.81
2019-02-18T17:19:18.220Z,57.05
2019-02-18T17:21:49.152Z,57.12
2019-02-18T17:24:20.093Z,57.54
2019-02-18T17:26:50.900Z,57.98
2019-02-18T17:29:21.842Z,58.31
2019-02-18T17:31:52.663Z,57.69
2019-02-18T17:34:23.586Z,57.89
2019-02-18T17:36:54.956Z,57.83
2019-02-18T17:39:25.929Z,57.80
2019-02-18T17:41:56.852Z,57.71
2019-02-18T17:44:27.683Z,58.64
2019-02-18T17:46:58.825Z,58.64
2019-02-18T17:49:29.806Z,58.27
2019-02-18T17:52:00.828Z,58.97
2019-02-18T17:54:31.295Z,58.85
2019-02-18T17:57:02.257Z,58.98
2019-02-18T17:59:33.395Z,58.82
2019-02-18T18:02:04.429Z,58.88
2019-02-18T18:04:36.301Z,58.90
2019-02-18T18:07:06.894Z,59.28
2019-02-18T18:09:37.760Z,59.03
2019-02-18T18:12:08.361Z,59.03
2019-02-18T18:14:39.232Z,58.84
2019-02-18T18:17:10.518Z,58.80
2019-02-18T18:19:41.328Z,59.12
2019-02-18T18:22:12.294Z,59.19
2019-02-18T18:24:43.247Z,59.22
2019-02-18T18:27:14.170Z,59.29
2019-02-18T18:29:44.961Z,59.27
2019-02-18T18:32:15.956Z,59.05
2019-02-18T18:34:46.876Z,59.17
2019-02-18T18:37:17.802Z,59.28
2019-02-18T18:39:48.707Z,59.49
2019-02-18T18:42:19.564Z,60.11
2019-02-18T18:44:50.503Z,59.99
2019-02-18T18:47:21.440Z,60.34
2019-02-18T18:49:52.324Z,60.04
2019-02-18T18:52:23.217Z,60.34
2019-02-18T18:54:54.656Z,60.56
2019-02-18T18:57:25.798Z,60.66
2019-02-18T18:59:56.383Z,60.48
2019-02-18T19:02:27.202Z,60.43
2019-02-18T19:04:58.080Z,60.61
2019-02-18T19:07:30.416Z,60.48
2019-02-18T19:10:01.403Z,60.52
2019-02-18T19:12:32.512Z,60.69
2019-02-18T19:15:03.431Z,60.96
2019-02-18T19:17:34.368Z,60.84
2019-02-18T19:20:06.276Z,60.90
2019-02-18T19:22:36.854Z,60.99
2019-02-18T19:25:09.782Z,61.33
2019-02-18T19:27:40.884Z,61.39
2019-02-18T19:30:17.784Z,61.46
2019-02-18T19:32:50.005Z,61.12
2019-02-18T19:35:20.971Z,61.22
2019-02-18T19:37:55.863Z,61.30
2019-02-18T19:40:26.654Z,61.32
2019-02-18T19:42:57.602Z,61.17
2019-02-18T19:45:28.747Z,61.26
2019-02-18T19:47:59.662Z,60.97
2019-02-18T19:50:30.642Z,61.20
2019-02-18T19:53:01.867Z,61.43
2019-02-18T19:55:33.250Z,61.75
2019-02-18T19:58:04.553Z,61.77
2019-02-18T20:00:35.783Z,61.86
2019-02-18T20:03:09.101Z,62.11
2019-02-18T20:05:41.788Z,62.25
2019-02-18T20:08:12.702Z,62.41
2019-02-18T20:10:43.279Z,62.32
2019-02-18T20:13:14.366Z,62.23
2019-02-18T20:15:45.241Z,62.10
2019-02-18T20:18:16.173Z,62.21
2019-02-18T20:20:46.738Z,62.57
2019-02-18T20:23:17.646Z,62.04
2019-02-18T20:25:48.575Z,62.43
2019-02-18T20:28:19.517Z,62.37
2019-02-18T20:30:50.468Z,62.29
2019-02-18T20:33:21.015Z,62.74
2019-02-18T20:35:52.315Z,62.42
2019-02-18T20:38:23.409Z,62.64
2019-02-18T20:40:54.429Z,62.67
2019-02-18T20:43:25.420Z,62.35
2019-02-18T20:45:58.484Z,62.86
2019-02-18T20:48:29.800Z,62.95
2019-02-18T20:51:00.840Z,62.76
2019-02-18T20:53:31.686Z,62.53
2019-02-18T20:56:02.714Z,62.90
2019-02-18T20:58:33.822Z,62.83
2019-02-18T21:01:05.081Z,63.20
2019-02-18T21:03:36.028Z,63.01
2019-02-18T21:06:06.647Z,63.04
2019-02-18T21:08:37.521Z,63.06
2019-02-18T21:14:14.340Z,63.04
2019-02-18T21:16:40.110Z,63.33
2019-02-18T21:19:12.075Z,63.03
2019-02-18T21:21:44.687Z,62.91
2019-02-18T21:24:15.238Z,63.23
2019-02-18T21:26:46.834Z,63.30
2019-02-18T21:29:17.787Z,63.15
2019-02-18T21:31:48.388Z,63.04
2019-02-18T21:34:19.697Z,63.61
2019-02-18T21:36:50.585Z,63.29
2019-02-18T21:39:24.793Z,63.38
2019-02-18T21:41:55.790Z,63.42
2019-02-18T21:44:27.536Z,63.70
2019-02-18T21:46:58.771Z,63.31
2019-02-18T21:49:31.315Z,63.46
2019-02-18T21:52:04.953Z,63.40
2019-02-18T21:54:35.895Z,63.52
2019-02-18T21:57:06.802Z,63.70
2019-02-18T21:59:37.616Z,63.70
2019-02-18T22:02:08.566Z,63.72
2019-02-18T22:04:39.431Z,64.05
2019-02-18T22:07:10.414Z,63.93
2019-02-18T22:09:47.457Z,63.65
2019-02-18T22:12:18.363Z,64.03
2019-02-18T22:14:49.119Z,64.01
2019-02-18T22:17:22.698Z,63.94
2019-02-18T22:19:53.561Z,64.12
2019-02-18T22:22:24.430Z,64.15
2019-02-18T22:24:55.822Z,63.93
2019-02-18T22:27:26.652Z,64.03
2019-02-18T22:29:57.131Z,64.46
2019-02-18T22:32:28.020Z,63.59
2019-02-18T22:34:58.443Z,64.41
2019-02-18T22:37:29.180Z,64.28
2019-02-18T22:40:00.106Z,64.07
2019-02-18T22:42:30.953Z,64.27
2019-02-18T22:45:01.793Z,64.35
2019-02-18T22:47:32.694Z,64.56
2019-02-18T22:50:03.624Z,64.74
2019-02-18T22:52:35.056Z,65.11
2019-02-18T22:55:08.021Z,65.03
2019-02-18T22:57:38.838Z,64.96
2019-02-18T23:00:32.622Z,64.65
2019-02-18T23:03:03.483Z,64.87
2019-02-18T23:05:34.385Z,64.87
2019-02-18T23:08:05.373Z,64.81
2019-02-18T23:10:36.298Z,64.85
2019-02-18T23:13:07.114Z,65.08
2019-02-18T23:15:38.481Z,65.06
2019-02-18T23:18:09.013Z,65.06
2019-02-18T23:20:39.834Z,65.07
2019-02-18T23:23:10.677Z,65.33
2019-02-18T23:25:41.400Z,65.19
2019-02-18T23:28:12.237Z,65.32
2019-02-18T23:30:43.100Z,65.63
2019-02-18T23:33:14.117Z,65.59
2019-02-18T23:35:44.867Z,65.50
2019-02-18T23:38:15.444Z,65.56
2019-02-18T23:40:46.237Z,65.44
2019-02-18T23:43:17.561Z,65.62
2019-02-18T23:45:48.454Z,65.42
2019-02-18T23:48:19.272Z,65.55
2019-02-18T23:50:49.647Z,65.55
2019-02-18T23:53:20.089Z,64.86
2019-02-18T23:55:50.828Z,65.54
2019-02-18T23:58:21.658Z,65.81
